sensor_id;sensor_type;location;lat;lon;timestamp;P1;durP1;ratioP1;P2;durP2;ratioP2
9224;SDS011;4647;48.072;11.616;2022-11-20T00:00:17;3.70;;;2.40;;
9224;SDS011;4647;48.072;11.616;2022-11-20T00:02:44;2.67;;;2.43;;
9224;SDS011;4647;48.072;11.616;2022-11-20T00:05:10;3.87;;;2.07;;
9224;SDS011;4647;48.072;11.616;2022-11-20T00:07:37;2.87;;;2.10;;
9224;SDS011;4647;48.072;11.616;2022-11-20T00:10:04;2.50;;;1.80;;
9224;SDS011;4647;48.072;11.616;2022-11-20T00:12:32;3.40;;;2.10;;
9224;SDS011;4647;48.072;11.616;2022-11-20T00:15:00;3.70;;;2.37;;
9224;SDS011;4647;48.072;11.616;2022-11-20T00:17:27;5.33;;;2.47;;
9224;SDS011;4647;48.072;11.616;2022-11-20T00:19:54;3.80;;;2.20;;
9224;SDS011;4647;48.072;11.616;2022-11-20T00:22:21;2.90;;;2.10;;
9224;SDS011;4647;48.072;11.616;2022-11-20T00:24:47;3.73;;;2.10;;
9224;SDS011;4647;48.072;11.616;2022-11-20T00:27:14;2.17;;;1.80;;
9224;SDS011;4647;48.072;11.616;2022-11-20T00:29:41;4.07;;;2.27;;
9224;SDS011;4647;48.072;11.616;2022-11-20T00:32:09;2.67;;;2.20;;
9224;SDS011;4647;48.072;11.616;2022-11-20T00:34:36;2.50;;;2.00;;
9224;SDS011;4647;48.072;11.616;2022-11-20T00:37:03;3.47;;;2.03;;
9224;SDS011;4647;48.072;11.616;2022-11-20T00:39:30;2.90;;;1.53;;
9224;SDS011;4647;48.072;11.616;2022-11-20T00:41:57;3.33;;;2.00;;
9224;SDS011;4647;48.072;11.616;2022-11-20T00:44:23;2.70;;;2.03;;
9224;SDS011;4647;48.072;11.616;2022-11-20T00:46:50;2.00;;;1.80;;
9224;SDS011;4647;48.072;11.616;2022-11-20T00:49:18;2.40;;;1.80;;
9224;SDS011;4647;48.072;11.616;2022-11-20T00:51:45;2.87;;;1.90;;
9224;SDS011;4647;48.072;11.616;2022-11-20T00:54:12;3.47;;;2.00;;
9224;SDS011;4647;48.072;11.616;2022-11-20T00:56:39;1.97;;;1.50;;
9224;SDS011;4647;48.072;11.616;2022-11-20T00:59:08;1.73;;;1.63;;
9224;SDS011;4647;48.072;11.616;2022-11-20T01:01:36;3.57;;;1.70;;
9224;SDS011;4647;48.072;11.616;2022-11-20T01:04:03;2.10;;;1.70;;
9224;SDS011;4647;48.072;11.616;2022-11-20T01:06:32;3.27;;;1.93;;
9224;SDS011;4647;48.072;11.616;2022-11-20T01:09:01;3.10;;;1.90;;
9224;SDS011;4647;48.072;11.616;2022-11-20T01:11:32;2.23;;;1.90;;
9224;SDS011;4647;48.072;11.616;2022-11-20T01:14:01;2.90;;;2.10;;
9224;SDS011;4647;48.072;11.616;2022-11-20T01:16:31;2.93;;;2.10;;
9224;SDS011;4647;48.072;11.616;2022-11-20T01:19:00;4.27;;;2.13;;
9224;SDS011;4647;48.072;11.616;2022-11-20T01:21:29;2.73;;;2.00;;
9224;SDS011;4647;48.072;11.616;2022-11-20T01:23:59;2.10;;;1.90;;
9224;SDS011;4647;48.072;11.616;2022-11-20T01:26:27;3.33;;;2.00;;
9224;SDS011;4647;48.072;11.616;2022-11-20T01:28:55;2.23;;;2.03;;
9224;SDS011;4647;48.072;11.616;2022-11-20T01:31:23;2.80;;;2.13;;
9224;SDS011;4647;48.072;11.616;2022-11-20T01:33:52;4.27;;;2.13;;
9224;SDS011;4647;48.072;11.616;2022-11-20T01:36:21;4.27;;;2.27;;
9224;SDS011;4647;48.072;11.616;2022-11-20T01:38:52;3.40;;;2.23;;
9224;SDS011;4647;48.072;11.616;2022-11-20T01:41:20;2.13;;;2.00;;
9224;SDS011;4647;48.072;11.616;2022-11-20T01:44:02;2.80;;;2.43;;
9224;SDS011;4647;48.072;11.616;2022-11-20T01:46:30;2.97;;;2.43;;
9224;SDS011;4647;48.072;11.616;2022-11-20T01:49:00;2.27;;;2.07;;
9224;SDS011;4647;48.072;11.616;2022-11-20T01:51:33;3.50;;;2.43;;
9224;SDS011;4647;48.072;11.616;2022-11-20T01:54:07;3.17;;;2.30;;
9224;SDS011;4647;48.072;11.616;2022-11-20T01:56:38;2.60;;;2.40;;
9224;SDS011;4647;48.072;11.616;2022-11-20T01:59:09;3.40;;;2.60;;
9224;SDS011;4647;48.072;11.616;2022-11-20T02:01:39;2.50;;;2.30;;
9224;SDS011;4647;48.072;11.616;2022-11-20T02:04:06;3.23;;;2.37;;
9224;SDS011;4647;48.072;11.616;2022-11-20T02:06:35;3.47;;;2.20;;
9224;SDS011;4647;48.072;11.616;2022-11-20T02:09:06;4.67;;;2.70;;
9224;SDS011;4647;48.072;11.616;2022-11-20T02:11:33;2.60;;;2.33;;
9224;SDS011;4647;48.072;11.616;2022-11-20T02:14:00;3.43;;;2.50;;
9224;SDS011;4647;48.072;11.616;2022-11-20T02:16:27;2.93;;;2.30;;
9224;SDS011;4647;48.072;11.616;2022-11-20T02:18:58;3.13;;;2.30;;
9224;SDS011;4647;48.072;11.616;2022-11-20T02:21:28;3.33;;;2.17;;
9224;SDS011;4647;48.072;11.616;2022-11-20T02:24:06;2.90;;;2.60;;
9224;SDS011;4647;48.072;11.616;2022-11-20T02:26:38;2.60;;;2.40;;
9224;SDS011;4647;48.072;11.616;2022-11-20T02:29:09;3.00;;;2.60;;
9224;SDS011;4647;48.072;11.616;2022-11-20T02:31:40;4.83;;;2.83;;
9224;SDS011;4647;48.072;11.616;2022-11-20T02:34:08;3.33;;;2.50;;
9224;SDS011;4647;48.072;11.616;2022-11-20T02:36:36;3.80;;;2.17;;
9224;SDS011;4647;48.072;11.616;2022-11-20T02:39:06;3.50;;;2.70;;
9224;SDS011;4647;48.072;11.616;2022-11-20T02:41:35;3.43;;;2.53;;
9224;SDS011;4647;48.072;11.616;2022-11-20T02:44:03;4.83;;;2.70;;
9224;SDS011;4647;48.072;11.616;2022-11-20T02:46:31;4.33;;;2.93;;
9224;SDS011;4647;48.072;11.616;2022-11-20T02:48:59;4.17;;;2.63;;
9224;SDS011;4647;48.072;11.616;2022-11-20T02:51:27;4.63;;;2.50;;
9224;SDS011;4647;48.072;11.616;2022-11-20T02:53:54;5.30;;;2.57;;
9224;SDS011;4647;48.072;11.616;2022-11-20T02:56:23;5.73;;;2.63;;
9224;SDS011;4647;48.072;11.616;2022-11-20T02:58:50;3.50;;;3.03;;
9224;SDS011;4647;48.072;11.616;2022-11-20T03:01:17;3.77;;;2.77;;
9224;SDS011;4647;48.072;11.616;2022-11-20T03:03:44;4.57;;;2.70;;
9224;SDS011;4647;48.072;11.616;2022-11-20T03:06:13;4.40;;;2.97;;
9224;SDS011;4647;48.072;11.616;2022-11-20T03:08:40;2.73;;;2.40;;
9224;SDS011;4647;48.072;11.616;2022-11-20T03:11:07;3.23;;;2.93;;
9224;SDS011;4647;48.072;11.616;2022-11-20T03:13:36;3.50;;;2.50;;
9224;SDS011;4647;48.072;11.616;2022-11-20T03:16:07;3.00;;;2.70;;
9224;SDS011;4647;48.072;11.616;2022-11-20T03:18:35;3.17;;;2.43;;
9224;SDS011;4647;48.072;11.616;2022-11-20T03:21:02;3.63;;;2.70;;
9224;SDS011;4647;48.072;11.616;2022-11-20T03:23:29;3.20;;;2.90;;
9224;SDS011;4647;48.072;11.616;2022-11-20T03:26:06;3.30;;;2.73;;
9224;SDS011;4647;48.072;11.616;2022-11-20T03:28:38;3.87;;;2.40;;
9224;SDS011;4647;48.072;11.616;2022-11-20T03:31:09;4.83;;;2.70;;
9224;SDS011;4647;48.072;11.616;2022-11-20T03:33:38;2.93;;;2.63;;
9224;SDS011;4647;48.072;11.616;2022-11-20T03:36:06;2.63;;;2.43;;
9224;SDS011;4647;48.072;11.616;2022-11-20T03:38:35;3.23;;;2.93;;
9224;SDS011;4647;48.072;11.616;2022-11-20T03:41:03;4.30;;;2.70;;
9224;SDS011;4647;48.072;11.616;2022-11-20T03:43:31;4.53;;;2.70;;
9224;SDS011;4647;48.072;11.616;2022-11-20T03:46:00;3.43;;;3.00;;
9224;SDS011;4647;48.072;11.616;2022-11-20T03:48:27;3.27;;;2.60;;
9224;SDS011;4647;48.072;11.616;2022-11-20T03:51:06;3.47;;;3.00;;
9224;SDS011;4647;48.072;11.616;2022-11-20T03:53:34;5.13;;;2.60;;
9224;SDS011;4647;48.072;11.616;2022-11-20T03:56:01;5.87;;;2.77;;
9224;SDS011;4647;48.072;11.616;2022-11-20T03:58:27;3.10;;;2.73;;
9224;SDS011;4647;48.072;11.616;2022-11-20T04:00:54;3.03;;;2.37;;
9224;SDS011;4647;48.072;11.616;2022-11-20T04:03:23;3.97;;;2.83;;
9224;SDS011;4647;48.072;11.616;2022-11-20T04:05:50;2.97;;;2.67;;
9224;SDS011;4647;48.072;11.616;2022-11-20T04:08:16;3.87;;;2.60;;
9224;SDS011;4647;48.072;11.616;2022-11-20T04:10:44;3.00;;;2.50;;
9224;SDS011;4647;48.072;11.616;2022-11-20T04:13:10;4.13;;;2.40;;
9224;SDS011;4647;48.072;11.616;2022-11-20T04:15:37;5.57;;;2.60;;
9224;SDS011;4647;48.072;11.616;2022-11-20T04:18:04;2.97;;;2.47;;
9224;SDS011;4647;48.072;11.616;2022-11-20T04:20:32;3.27;;;2.20;;
9224;SDS011;4647;48.072;11.616;2022-11-20T04:22:59;4.80;;;3.27;;
9224;SDS011;4647;48.072;11.616;2022-11-20T04:25:26;2.70;;;2.37;;
9224;SDS011;4647;48.072;11.616;2022-11-20T04:27:53;3.10;;;2.80;;
9224;SDS011;4647;48.072;11.616;2022-11-20T04:30:20;2.90;;;2.60;;
9224;SDS011;4647;48.072;11.616;2022-11-20T04:32:47;3.00;;;2.20;;
9224;SDS011;4647;48.072;11.616;2022-11-20T04:35:14;2.83;;;2.63;;
9224;SDS011;4647;48.072;11.616;2022-11-20T04:37:42;2.70;;;2.50;;
9224;SDS011;4647;48.072;11.616;2022-11-20T04:40:09;3.00;;;2.50;;
9224;SDS011;4647;48.072;11.616;2022-11-20T04:42:37;4.17;;;2.70;;
9224;SDS011;4647;48.072;11.616;2022-11-20T04:45:04;2.77;;;2.47;;
9224;SDS011;4647;48.072;11.616;2022-11-20T04:47:32;3.40;;;2.43;;
9224;SDS011;4647;48.072;11.616;2022-11-20T04:49:59;3.27;;;2.70;;
9224;SDS011;4647;48.072;11.616;2022-11-20T04:52:25;3.00;;;2.70;;
9224;SDS011;4647;48.072;11.616;2022-11-20T04:54:54;3.77;;;2.80;;
9224;SDS011;4647;48.072;11.616;2022-11-20T04:57:21;3.67;;;2.67;;
9224;SDS011;4647;48.072;11.616;2022-11-20T04:59:48;2.63;;;2.30;;
9224;SDS011;4647;48.072;11.616;2022-11-20T05:02:15;2.60;;;2.17;;
9224;SDS011;4647;48.072;11.616;2022-11-20T05:04:42;3.70;;;2.80;;
9224;SDS011;4647;48.072;11.616;2022-11-20T05:07:08;3.83;;;2.43;;
9224;SDS011;4647;48.072;11.616;2022-11-20T05:09:35;3.37;;;2.20;;
9224;SDS011;4647;48.072;11.616;2022-11-20T05:12:04;3.10;;;2.60;;
9224;SDS011;4647;48.072;11.616;2022-11-20T05:14:33;3.77;;;2.40;;
9224;SDS011;4647;48.072;11.616;2022-11-20T05:16:59;3.07;;;2.50;;
9224;SDS011;4647;48.072;11.616;2022-11-20T05:19:26;3.03;;;2.57;;
9224;SDS011;4647;48.072;11.616;2022-11-20T05:21:53;3.93;;;2.43;;
9224;SDS011;4647;48.072;11.616;2022-11-20T05:24:20;3.43;;;2.77;;
9224;SDS011;4647;48.072;11.616;2022-11-20T05:26:47;3.27;;;2.60;;
9224;SDS011;4647;48.072;11.616;2022-11-20T05:29:15;4.83;;;2.50;;
9224;SDS011;4647;48.072;11.616;2022-11-20T05:31:42;2.63;;;2.30;;
9224;SDS011;4647;48.072;11.616;2022-11-20T05:34:09;3.40;;;2.50;;
9224;SDS011;4647;48.072;11.616;2022-11-20T05:36:36;3.17;;;2.87;;
9224;SDS011;4647;48.072;11.616;2022-11-20T05:39:03;4.50;;;2.53;;
9224;SDS011;4647;48.072;11.616;2022-11-20T05:41:30;2.40;;;2.20;;
9224;SDS011;4647;48.072;11.616;2022-11-20T05:43:59;3.20;;;2.53;;
9224;SDS011;4647;48.072;11.616;2022-11-20T05:46:27;2.70;;;2.50;;
9224;SDS011;4647;48.072;11.616;2022-11-20T05:48:54;3.90;;;2.93;;
9224;SDS011;4647;48.072;11.616;2022-11-20T05:51:21;4.33;;;2.50;;
9224;SDS011;4647;48.072;11.616;2022-11-20T05:53:48;2.70;;;2.50;;
9224;SDS011;4647;48.072;11.616;2022-11-20T05:56:16;3.07;;;2.73;;
9224;SDS011;4647;48.072;11.616;2022-11-20T05:58:44;3.07;;;2.77;;
9224;SDS011;4647;48.072;11.616;2022-11-20T06:01:13;4.03;;;2.80;;
9224;SDS011;4647;48.072;11.616;2022-11-20T06:03:43;3.30;;;2.87;;
9224;SDS011;4647;48.072;11.616;2022-11-20T06:06:12;3.83;;;3.20;;
9224;SDS011;4647;48.072;11.616;2022-11-20T06:08:40;3.40;;;3.10;;
9224;SDS011;4647;48.072;11.616;2022-11-20T06:11:08;3.77;;;3.40;;
9224;SDS011;4647;48.072;11.616;2022-11-20T06:13:36;3.90;;;3.20;;
9224;SDS011;4647;48.072;11.616;2022-11-20T06:16:03;4.07;;;3.17;;
9224;SDS011;4647;48.072;11.616;2022-11-20T06:18:31;4.23;;;2.73;;
9224;SDS011;4647;48.072;11.616;2022-11-20T06:21:03;3.00;;;2.70;;
9224;SDS011;4647;48.072;11.616;2022-11-20T06:23:32;3.13;;;2.80;;
9224;SDS011;4647;48.072;11.616;2022-11-20T06:26:00;2.70;;;2.50;;
9224;SDS011;4647;48.072;11.616;2022-11-20T06:28:28;4.57;;;3.23;;
9224;SDS011;4647;48.072;11.616;2022-11-20T06:30:55;4.53;;;3.10;;
9224;SDS011;4647;48.072;11.616;2022-11-20T06:33:22;5.40;;;2.97;;
9224;SDS011;4647;48.072;11.616;2022-11-20T06:35:49;3.70;;;2.50;;
9224;SDS011;4647;48.072;11.616;2022-11-20T06:38:17;2.40;;;2.20;;
9224;SDS011;4647;48.072;11.616;2022-11-20T06:40:44;2.70;;;2.33;;
9224;SDS011;4647;48.072;11.616;2022-11-20T06:43:11;2.40;;;2.20;;
9224;SDS011;4647;48.072;11.616;2022-11-20T06:45:38;4.13;;;2.53;;
9224;SDS011;4647;48.072;11.616;2022-11-20T06:48:05;2.40;;;2.20;;
9224;SDS011;4647;48.072;11.616;2022-11-20T06:50:32;4.77;;;2.33;;
9224;SDS011;4647;48.072;11.616;2022-11-20T06:53:00;2.67;;;2.30;;
9224;SDS011;4647;48.072;11.616;2022-11-20T06:55:30;2.43;;;2.20;;
9224;SDS011;4647;48.072;11.616;2022-11-20T06:57:57;4.17;;;2.50;;
9224;SDS011;4647;48.072;11.616;2022-11-20T07:00:24;2.43;;;2.23;;
9224;SDS011;4647;48.072;11.616;2022-11-20T07:02:51;2.93;;;2.60;;
9224;SDS011;4647;48.072;11.616;2022-11-20T07:05:18;2.47;;;2.27;;
9224;SDS011;4647;48.072;11.616;2022-11-20T07:07:45;3.03;;;2.00;;
9224;SDS011;4647;48.072;11.616;2022-11-20T07:10:12;2.77;;;2.27;;
9224;SDS011;4647;48.072;11.616;2022-11-20T07:12:40;5.13;;;2.90;;
9224;SDS011;4647;48.072;11.616;2022-11-20T07:15:07;4.07;;;3.10;;
9224;SDS011;4647;48.072;11.616;2022-11-20T07:17:34;3.23;;;2.70;;
9224;SDS011;4647;48.072;11.616;2022-11-20T07:20:01;3.07;;;2.70;;
9224;SDS011;4647;48.072;11.616;2022-11-20T07:22:28;3.10;;;2.80;;
9224;SDS011;4647;48.072;11.616;2022-11-20T07:24:55;4.50;;;2.90;;
9224;SDS011;4647;48.072;11.616;2022-11-20T07:27:22;7.20;;;3.53;;
9224;SDS011;4647;48.072;11.616;2022-11-20T07:29:50;5.57;;;3.63;;
9224;SDS011;4647;48.072;11.616;2022-11-20T07:32:17;7.50;;;4.00;;
9224;SDS011;4647;48.072;11.616;2022-11-20T07:34:44;3.83;;;3.00;;
9224;SDS011;4647;48.072;11.616;2022-11-20T07:37:11;3.87;;;2.43;;
9224;SDS011;4647;48.072;11.616;2022-11-20T07:39:38;3.37;;;3.00;;
9224;SDS011;4647;48.072;11.616;2022-11-20T07:42:05;3.00;;;2.60;;
9224;SDS011;4647;48.072;11.616;2022-11-20T07:44:33;2.47;;;2.27;;
9224;SDS011;4647;48.072;11.616;2022-11-20T07:47:01;2.60;;;2.37;;
9224;SDS011;4647;48.072;11.616;2022-11-20T07:49:28;11.00;;;6.33;;
9224;SDS011;4647;48.072;11.616;2022-11-20T07:51:55;2.83;;;2.30;;
9224;SDS011;4647;48.072;11.616;2022-11-20T07:54:22;2.57;;;2.33;;
9224;SDS011;4647;48.072;11.616;2022-11-20T07:56:49;3.27;;;2.40;;
9224;SDS011;4647;48.072;11.616;2022-11-20T07:59:16;2.57;;;2.23;;
9224;SDS011;4647;48.072;11.616;2022-11-20T08:01:43;2.77;;;2.10;;
9224;SDS011;4647;48.072;11.616;2022-11-20T08:04:11;2.00;;;1.80;;
9224;SDS011;4647;48.072;11.616;2022-11-20T08:06:40;2.93;;;2.07;;
9224;SDS011;4647;48.072;11.616;2022-11-20T08:09:07;2.27;;;2.00;;
9224;SDS011;4647;48.072;11.616;2022-11-20T08:11:34;3.47;;;2.00;;
9224;SDS011;4647;48.072;11.616;2022-11-20T08:14:19;3.10;;;2.00;;
9224;SDS011;4647;48.072;11.616;2022-11-20T08:16:46;2.17;;;1.97;;
9224;SDS011;4647;48.072;11.616;2022-11-20T08:19:16;2.13;;;1.93;;
9224;SDS011;4647;48.072;11.616;2022-11-20T08:21:44;2.60;;;1.87;;
9224;SDS011;4647;48.072;11.616;2022-11-20T08:24:12;2.80;;;2.10;;
9224;SDS011;4647;48.072;11.616;2022-11-20T08:26:39;2.10;;;1.90;;
9224;SDS011;4647;48.072;11.616;2022-11-20T08:29:06;3.27;;;2.10;;
9224;SDS011;4647;48.072;11.616;2022-11-20T08:31:33;3.07;;;2.10;;
9224;SDS011;4647;48.072;11.616;2022-11-20T08:34:01;2.63;;;2.00;;
9224;SDS011;4647;48.072;11.616;2022-11-20T08:36:32;2.30;;;2.00;;
9224;SDS011;4647;48.072;11.616;2022-11-20T08:38:59;2.43;;;1.93;;
9224;SDS011;4647;48.072;11.616;2022-11-20T08:41:26;3.20;;;1.93;;
9224;SDS011;4647;48.072;11.616;2022-11-20T08:43:58;5.90;;;2.90;;
9224;SDS011;4647;48.072;11.616;2022-11-20T08:46:27;14.83;;;6.90;;
9224;SDS011;4647;48.072;11.616;2022-11-20T08:48:58;13.90;;;5.30;;
9224;SDS011;4647;48.072;11.616;2022-11-20T08:51:24;7.20;;;3.83;;
9224;SDS011;4647;48.072;11.616;2022-11-20T08:53:53;4.80;;;1.93;;
9224;SDS011;4647;48.072;11.616;2022-11-20T08:56:20;2.60;;;1.97;;
9224;SDS011;4647;48.072;11.616;2022-11-20T08:58:46;1.70;;;1.60;;
9224;SDS011;4647;48.072;11.616;2022-11-20T09:01:13;1.70;;;1.60;;
9224;SDS011;4647;48.072;11.616;2022-11-20T09:03:40;3.40;;;1.90;;
9224;SDS011;4647;48.072;11.616;2022-11-20T09:06:07;2.00;;;1.80;;
9224;SDS011;4647;48.072;11.616;2022-11-20T09:08:34;2.00;;;1.63;;
9224;SDS011;4647;48.072;11.616;2022-11-20T09:11:04;2.03;;;1.83;;
9224;SDS011;4647;48.072;11.616;2022-11-20T09:13:32;3.13;;;2.03;;
9224;SDS011;4647;48.072;11.616;2022-11-20T09:16:00;4.27;;;2.17;;
9224;SDS011;4647;48.072;11.616;2022-11-20T09:18:28;2.30;;;1.97;;
9224;SDS011;4647;48.072;11.616;2022-11-20T09:20:57;7.73;;;3.60;;
9224;SDS011;4647;48.072;11.616;2022-11-20T09:23:24;2.00;;;1.80;;
9224;SDS011;4647;48.072;11.616;2022-11-20T09:25:51;2.53;;;1.80;;
9224;SDS011;4647;48.072;11.616;2022-11-20T09:28:21;2.47;;;1.80;;
9224;SDS011;4647;48.072;11.616;2022-11-20T09:30:48;1.83;;;1.50;;
9224;SDS011;4647;48.072;11.616;2022-11-20T09:33:15;1.83;;;1.47;;
9224;SDS011;4647;48.072;11.616;2022-11-20T09:35:42;2.10;;;1.50;;
9224;SDS011;4647;48.072;11.616;2022-11-20T09:38:09;2.83;;;1.63;;
9224;SDS011;4647;48.072;11.616;2022-11-20T09:40:38;2.40;;;1.57;;
9224;SDS011;4647;48.072;11.616;2022-11-20T09:43:07;1.53;;;1.23;;
9224;SDS011;4647;48.072;11.616;2022-11-20T09:45:42;4.27;;;2.10;;
9224;SDS011;4647;48.072;11.616;2022-11-20T09:48:25;3.80;;;2.17;;
9224;SDS011;4647;48.072;11.616;2022-11-20T09:51:04;1.53;;;1.30;;
9224;SDS011;4647;48.072;11.616;2022-11-20T09:53:41;2.17;;;1.50;;
9224;SDS011;4647;48.072;11.616;2022-11-20T09:56:16;3.43;;;1.40;;
9224;SDS011;4647;48.072;11.616;2022-11-20T09:58:45;1.97;;;1.47;;
9224;SDS011;4647;48.072;11.616;2022-11-20T10:01:18;2.43;;;1.40;;
9224;SDS011;4647;48.072;11.616;2022-11-20T10:03:51;24.27;;;8.67;;
9224;SDS011;4647;48.072;11.616;2022-11-20T10:06:24;11.93;;;4.67;;
9224;SDS011;4647;48.072;11.616;2022-11-20T10:08:59;2.77;;;1.90;;
9224;SDS011;4647;48.072;11.616;2022-11-20T10:11:33;4.00;;;2.37;;
9224;SDS011;4647;48.072;11.616;2022-11-20T10:14:12;1.40;;;1.10;;
9224;SDS011;4647;48.072;11.616;2022-11-20T10:16:51;1.33;;;1.20;;
9224;SDS011;4647;48.072;11.616;2022-11-20T10:19:31;3.10;;;1.50;;
9224;SDS011;4647;48.072;11.616;2022-11-20T10:22:13;1.67;;;1.50;;
9224;SDS011;4647;48.072;11.616;2022-11-20T10:24:54;1.80;;;1.50;;
9224;SDS011;4647;48.072;11.616;2022-11-20T10:30:15;2.43;;;1.40;;
9224;SDS011;4647;48.072;11.616;2022-11-20T10:32:47;1.50;;;1.37;;
9224;SDS011;4647;48.072;11.616;2022-11-20T10:35:20;1.70;;;1.40;;
9224;SDS011;4647;48.072;11.616;2022-11-20T10:37:51;2.87;;;1.67;;
9224;SDS011;4647;48.072;11.616;2022-11-20T10:40:23;1.87;;;1.30;;
9224;SDS011;4647;48.072;11.616;2022-11-20T10:42:56;3.40;;;1.40;;
9224;SDS011;4647;48.072;11.616;2022-11-20T10:45:34;1.33;;;1.23;;
9224;SDS011;4647;48.072;11.616;2022-11-20T10:48:16;2.30;;;1.13;;
9224;SDS011;4647;48.072;11.616;2022-11-20T10:50:51;1.33;;;1.23;;
9224;SDS011;4647;48.072;11.616;2022-11-20T10:53:30;1.37;;;1.20;;
9224;SDS011;4647;48.072;11.616;2022-11-20T10:56:07;1.33;;;1.23;;
9224;SDS011;4647;48.072;11.616;2022-11-20T10:58:42;1.47;;;1.10;;
9224;SDS011;4647;48.072;11.616;2022-11-20T11:01:16;2.10;;;1.20;;
9224;SDS011;4647;48.072;11.616;2022-11-20T11:03:45;1.93;;;1.20;;
9224;SDS011;4647;48.072;11.616;2022-11-20T11:06:14;1.20;;;1.07;;
9224;SDS011;4647;48.072;11.616;2022-11-20T11:08:48;1.37;;;1.20;;
9224;SDS011;4647;48.072;11.616;2022-11-20T11:11:19;1.17;;;1.00;;
9224;SDS011;4647;48.072;11.616;2022-11-20T11:13:48;2.13;;;1.23;;
9224;SDS011;4647;48.072;11.616;2022-11-20T11:16:19;1.20;;;1.10;;
9224;SDS011;4647;48.072;11.616;2022-11-20T11:18:49;1.30;;;1.17;;
9224;SDS011;4647;48.072;11.616;2022-11-20T11:21:22;2.83;;;1.33;;
9224;SDS011;4647;48.072;11.616;2022-11-20T11:23:57;1.73;;;1.13;;
9224;SDS011;4647;48.072;11.616;2022-11-20T11:26:26;1.37;;;0.97;;
9224;SDS011;4647;48.072;11.616;2022-11-20T11:28:57;3.37;;;1.30;;
9224;SDS011;4647;48.072;11.616;2022-11-20T11:31:25;1.73;;;1.20;;
9224;SDS011;4647;48.072;11.616;2022-11-20T11:34:04;4.17;;;1.40;;
9224;SDS011;4647;48.072;11.616;2022-11-20T11:36:31;1.70;;;1.30;;
9224;SDS011;4647;48.072;11.616;2022-11-20T11:39:00;1.93;;;1.40;;
9224;SDS011;4647;48.072;11.616;2022-11-20T11:41:30;2.23;;;1.50;;
9224;SDS011;4647;48.072;11.616;2022-11-20T11:44:00;3.33;;;1.50;;
9224;SDS011;4647;48.072;11.616;2022-11-20T11:46:56;2.17;;;1.40;;
9224;SDS011;4647;48.072;11.616;2022-11-20T11:49:25;2.83;;;1.47;;
9224;SDS011;4647;48.072;11.616;2022-11-20T11:52:00;1.40;;;1.23;;
9224;SDS011;4647;48.072;11.616;2022-11-20T11:54:33;2.23;;;1.37;;
9224;SDS011;4647;48.072;11.616;2022-11-20T11:57:05;1.33;;;1.20;;
9224;SDS011;4647;48.072;11.616;2022-11-20T11:59:41;1.30;;;1.20;;
9224;SDS011;4647;48.072;11.616;2022-11-20T12:02:17;1.27;;;1.17;;
9224;SDS011;4647;48.072;11.616;2022-11-20T12:04:56;1.57;;;1.30;;
9224;SDS011;4647;48.072;11.616;2022-11-20T12:07:28;1.20;;;1.10;;
9224;SDS011;4647;48.072;11.616;2022-11-20T12:10:04;1.90;;;1.30;;
9224;SDS011;4647;48.072;11.616;2022-11-20T12:12:39;1.23;;;1.00;;
9224;SDS011;4647;48.072;11.616;2022-11-20T12:15:11;2.13;;;1.27;;
9224;SDS011;4647;48.072;11.616;2022-11-20T12:17:42;1.40;;;1.20;;
9224;SDS011;4647;48.072;11.616;2022-11-20T12:20:14;2.00;;;1.30;;
9224;SDS011;4647;48.072;11.616;2022-11-20T12:22:42;3.03;;;1.90;;
9224;SDS011;4647;48.072;11.616;2022-11-20T12:25:18;1.47;;;1.20;;
9224;SDS011;4647;48.072;11.616;2022-11-20T12:27:51;2.03;;;1.33;;
9224;SDS011;4647;48.072;11.616;2022-11-20T12:30:30;3.03;;;1.53;;
9224;SDS011;4647;48.072;11.616;2022-11-20T12:33:16;2.60;;;1.20;;
9224;SDS011;4647;48.072;11.616;2022-11-20T12:35:59;2.07;;;1.20;;
9224;SDS011;4647;48.072;11.616;2022-11-20T12:38:40;2.07;;;1.40;;
9224;SDS011;4647;48.072;11.616;2022-11-20T12:41:27;3.20;;;1.50;;
9224;SDS011;4647;48.072;11.616;2022-11-20T12:44:31;1.40;;;1.30;;
9224;SDS011;4647;48.072;11.616;2022-11-20T12:47:28;2.40;;;1.50;;
9224;SDS011;4647;48.072;11.616;2022-11-20T12:50:06;2.20;;;1.57;;
9224;SDS011;4647;48.072;11.616;2022-11-20T12:52:44;2.17;;;1.50;;
9224;SDS011;4647;48.072;11.616;2022-11-20T12:55:16;2.43;;;2.00;;
9224;SDS011;4647;48.072;11.616;2022-11-20T12:57:54;2.57;;;1.80;;
9224;SDS011;4647;48.072;11.616;2022-11-20T13:00:25;1.50;;;1.40;;
9224;SDS011;4647;48.072;11.616;2022-11-20T13:02:59;2.27;;;1.57;;
9224;SDS011;4647;48.072;11.616;2022-11-20T13:05:41;1.97;;;1.67;;
9224;SDS011;4647;48.072;11.616;2022-11-20T13:08:20;1.60;;;1.50;;
9224;SDS011;4647;48.072;11.616;2022-11-20T13:10:52;2.40;;;1.60;;
9224;SDS011;4647;48.072;11.616;2022-11-20T13:13:26;1.30;;;1.20;;
9224;SDS011;4647;48.072;11.616;2022-11-20T13:16:02;1.47;;;1.37;;
9224;SDS011;4647;48.072;11.616;2022-11-20T13:18:35;1.50;;;1.40;;
9224;SDS011;4647;48.072;11.616;2022-11-20T13:21:13;1.57;;;1.30;;
9224;SDS011;4647;48.072;11.616;2022-11-20T13:23:42;2.20;;;1.47;;
9224;SDS011;4647;48.072;11.616;2022-11-20T13:26:17;2.27;;;1.53;;
9224;SDS011;4647;48.072;11.616;2022-11-20T13:28:46;2.30;;;1.60;;
9224;SDS011;4647;48.072;11.616;2022-11-20T13:31:28;2.20;;;1.80;;
9224;SDS011;4647;48.072;11.616;2022-11-20T13:33:57;2.10;;;1.50;;
9224;SDS011;4647;48.072;11.616;2022-11-20T13:36:26;1.50;;;1.40;;
9224;SDS011;4647;48.072;11.616;2022-11-20T13:38:55;2.43;;;1.70;;
9224;SDS011;4647;48.072;11.616;2022-11-20T13:41:23;1.60;;;1.43;;
9224;SDS011;4647;48.072;11.616;2022-11-20T13:43:54;5.13;;;1.97;;
9224;SDS011;4647;48.072;11.616;2022-11-20T13:46:34;2.47;;;1.70;;
9224;SDS011;4647;48.072;11.616;2022-11-20T13:49:20;1.70;;;1.50;;
9224;SDS011;4647;48.072;11.616;2022-11-20T13:51:54;3.00;;;1.70;;
9224;SDS011;4647;48.072;11.616;2022-11-20T14:00:24;1.97;;;1.20;;
9224;SDS011;4647;48.072;11.616;2022-11-20T14:03:07;1.87;;;1.43;;
9224;SDS011;4647;48.072;11.616;2022-11-20T14:05:39;2.13;;;1.37;;
9224;SDS011;4647;48.072;11.616;2022-11-20T14:08:17;2.37;;;1.60;;
9224;SDS011;4647;48.072;11.616;2022-11-20T14:10:50;1.83;;;1.33;;
9224;SDS011;4647;48.072;11.616;2022-11-20T14:13:28;1.50;;;1.40;;
9224;SDS011;4647;48.072;11.616;2022-11-20T14:15:56;3.43;;;1.43;;
9224;SDS011;4647;48.072;11.616;2022-11-20T14:18:25;2.00;;;1.63;;
9224;SDS011;4647;48.072;11.616;2022-11-20T14:20:53;1.93;;;1.60;;
9224;SDS011;4647;48.072;11.616;2022-11-20T14:23:23;2.73;;;1.70;;
9224;SDS011;4647;48.072;11.616;2022-11-20T14:25:52;2.90;;;1.60;;
9224;SDS011;4647;48.072;11.616;2022-11-20T14:28:22;2.23;;;1.40;;
9224;SDS011;4647;48.072;11.616;2022-11-20T14:30:52;1.60;;;1.50;;
9224;SDS011;4647;48.072;11.616;2022-11-20T14:33:20;2.37;;;1.40;;
9224;SDS011;4647;48.072;11.616;2022-11-20T14:35:50;1.60;;;1.50;;
9224;SDS011;4647;48.072;11.616;2022-11-20T14:38:21;1.40;;;1.30;;
9224;SDS011;4647;48.072;11.616;2022-11-20T14:40:51;1.97;;;1.50;;
9224;SDS011;4647;48.072;11.616;2022-11-20T14:43:19;2.07;;;1.50;;
9224;SDS011;4647;48.072;11.616;2022-11-20T14:45:52;2.27;;;1.50;;
9224;SDS011;4647;48.072;11.616;2022-11-20T14:48:24;1.77;;;1.40;;
9224;SDS011;4647;48.072;11.616;2022-11-20T14:50:56;2.17;;;1.87;;
9224;SDS011;4647;48.072;11.616;2022-11-20T14:53:25;1.87;;;1.40;;
9224;SDS011;4647;48.072;11.616;2022-11-20T14:55:56;1.30;;;1.20;;
9224;SDS011;4647;48.072;11.616;2022-11-20T14:58:25;1.40;;;1.23;;
9224;SDS011;4647;48.072;11.616;2022-11-20T15:00:54;2.93;;;1.50;;
9224;SDS011;4647;48.072;11.616;2022-11-20T15:03:35;2.43;;;1.40;;
9224;SDS011;4647;48.072;11.616;2022-11-20T15:06:03;1.73;;;1.10;;
9224;SDS011;4647;48.072;11.616;2022-11-20T15:08:33;1.10;;;1.00;;
9224;SDS011;4647;48.072;11.616;2022-11-20T15:11:00;1.00;;;0.90;;
9224;SDS011;4647;48.072;11.616;2022-11-20T15:13:29;1.37;;;1.10;;
9224;SDS011;4647;48.072;11.616;2022-11-20T15:15:58;1.60;;;1.23;;
9224;SDS011;4647;48.072;11.616;2022-11-20T15:18:27;1.33;;;1.10;;
9224;SDS011;4647;48.072;11.616;2022-11-20T15:20:56;1.53;;;1.40;;
9224;SDS011;4647;48.072;11.616;2022-11-20T15:23:24;1.40;;;1.30;;
9224;SDS011;4647;48.072;11.616;2022-11-20T15:25:54;1.30;;;1.20;;